createdAt,value
2022-08-08T00:00:53.665Z,1.15
2022-08-08T00:03:31.372Z,0.90
2022-08-08T00:06:05.609Z,1.27
2022-08-08T00:08:36.967Z,1.10
2022-08-08T00:11:14.834Z,1.55
2022-08-08T00:14:15.399Z,1.08
2022-08-08T00:16:50.202Z,1.20
2022-08-08T00:19:22.217Z,0.90
2022-08-08T00:21:57.872Z,0.90
2022-08-08T00:24:45.300Z,1.10
2022-08-08T00:27:15.942Z,1.00
2022-08-08T00:29:53.065Z,0.90
2022-08-08T00:32:43.218Z,0.93
2022-08-08T00:35:34.256Z,1.05
2022-08-08T00:38:31.477Z,1.10
2022-08-08T00:41:22.116Z,1.02
2022-08-08T00:44:19.928Z,1.30
2022-08-08T00:46:59.479Z,1.00
2022-08-08T00:50:01.096Z,1.00
2022-08-08T00:52:51.486Z,0.90
2022-08-08T00:55:36.312Z,1.15
2022-08-08T00:58:54.376Z,1.20
2022-08-08T01:01:44.790Z,1.10
2022-08-08T01:04:37.320Z,1.02
2022-08-08T01:10:52.395Z,0.85
2022-08-08T01:14:03.584Z,1.08
2022-08-08T01:17:20.194Z,1.33
2022-08-08T01:20:17.182Z,1.10
2022-08-08T01:22:48.802Z,1.33
2022-08-08T01:25:40.987Z,1.20
2022-08-08T01:28:34.974Z,1.10
2022-08-08T01:32:13.588Z,1.08
2022-08-08T01:34:53.571Z,0.98
2022-08-08T01:37:51.019Z,0.90
2022-08-08T01:40:26.418Z,1.10
2022-08-08T01:43:01.519Z,1.10
2022-08-08T01:45:57.511Z,1.20
2022-08-08T01:48:54.680Z,1.00
2022-08-08T01:52:55.207Z,1.10
2022-08-08T01:55:46.331Z,1.30
2022-08-08T01:58:12.640Z,1.17
2022-08-08T02:00:57.481Z,1.30
2022-08-08T02:03:57.875Z,1.30
2022-08-08T02:07:11.099Z,1.30
2022-08-08T02:10:03.388Z,1.40
2022-08-08T02:12:58.047Z,1.20
2022-08-08T02:15:48.029Z,1.30
2022-08-08T02:18:31.694Z,1.30
2022-08-08T02:21:24.223Z,1.17
2022-08-08T02:23:57.549Z,1.30
2022-08-08T02:26:52.476Z,1.30
2022-08-08T02:29:46.646Z,1.33
2022-08-08T02:32:49.443Z,1.20
2022-08-08T02:36:04.032Z,1.50
2022-08-08T02:38:33.373Z,1.30
2022-08-08T02:41:58.428Z,1.60
2022-08-08T02:44:57.334Z,1.50
2022-08-08T02:47:47.099Z,1.42
2022-08-08T02:50:55.670Z,1.60
2022-08-08T02:53:34.968Z,1.30
2022-08-08T02:56:37.544Z,1.40
2022-08-08T02:59:57.763Z,1.33
2022-08-08T03:03:05.175Z,1.10
2022-08-08T03:06:07.259Z,1.30
2022-08-08T03:08:43.087Z,1.30
2022-08-08T03:12:01.464Z,1.10
2022-08-08T03:15:59.841Z,1.00
2022-08-08T03:17:39.451Z,0.98
2022-08-08T03:20:08.208Z,1.00
2022-08-08T03:22:45.839Z,1.20
2022-08-08T03:25:18.712Z,1.40
2022-08-08T03:28:00.482Z,1.40
2022-08-08T03:30:27.790Z,1.27
2022-08-08T03:33:55.385Z,1.30
2022-08-08T03:36:01.031Z,1.20
2022-08-08T03:38:54.915Z,1.17
2022-08-08T03:42:03.999Z,1.30
2022-08-08T03:44:01.692Z,1.10
2022-08-08T03:46:32.226Z,1.15
2022-08-08T03:49:55.129Z,1.38
2022-08-08T03:51:55.510Z,1.20
2022-08-08T03:54:41.188Z,1.30
2022-08-08T03:58:31.722Z,1.27
2022-08-08T04:00:11.255Z,1.20
2022-08-08T04:02:47.320Z,1.40
2022-08-08T04:05:19.207Z,1.30
2022-08-08T04:07:46.755Z,1.33
2022-08-08T04:10:13.613Z,1.50
2022-08-08T04:12:41.459Z,1.77
2022-08-08T04:15:08.752Z,1.40
2022-08-08T04:17:46.777Z,1.15
2022-08-08T04:20:28.825Z,1.10
2022-08-08T04:22:57.138Z,1.42
2022-08-08T04:25:30.032Z,1.42
2022-08-08T04:28:02.452Z,1.88
2022-08-08T04:30:47.862Z,1.63
2022-08-08T04:33:15.496Z,1.60
2022-08-08T04:35:50.817Z,1.38
2022-08-08T04:38:21.196Z,1.30
2022-08-08T04:40:51.539Z,1.40
2022-08-08T04:43:22.722Z,1.50
2022-08-08T04:45:59.457Z,1.38
2022-08-08T04:48:26.469Z,1.30
2022-08-08T04:50:53.303Z,1.48
2022-08-08T04:54:36.540Z,1.45
2022-08-08T04:56:07.438Z,1.48
2022-08-08T04:58:34.287Z,1.50
2022-08-08T05:01:08.788Z,1.38
2022-08-08T05:04:10.053Z,1.33
2022-08-08T05:06:25.631Z,1.40
2022-08-08T05:08:55.760Z,1.80
2022-08-08T05:11:26.022Z,1.52
2022-08-08T05:13:57.859Z,1.40
2022-08-08T05:16:53.368Z,1.58
2022-08-08T05:20:10.353Z,1.48
2022-08-08T05:22:10.553Z,1.73
2022-08-08T05:24:38.664Z,1.63
2022-08-08T05:27:06.275Z,2.08
2022-08-08T05:29:36.003Z,1.50
2022-08-08T05:32:07.655Z,1.70
2022-08-08T05:34:49.581Z,1.70
2022-08-08T05:37:23.389Z,1.83
2022-08-08T05:40:07.403Z,1.60
2022-08-08T05:42:45.612Z,1.52
2022-08-08T05:45:25.372Z,1.67
2022-08-08T05:48:08.051Z,1.48
2022-08-08T05:50:36.422Z,1.70
2022-08-08T05:53:54.178Z,1.58
2022-08-08T05:56:10.065Z,1.40
2022-08-08T05:58:53.735Z,1.55
2022-08-08T06:01:52.449Z,1.10
2022-08-08T06:04:23.251Z,1.60
2022-08-08T06:06:56.510Z,1.35
2022-08-08T06:09:58.754Z,1.65
2022-08-08T06:12:30.558Z,1.60
2022-08-08T06:15:02.802Z,1.65
2022-08-08T06:18:18.603Z,1.87
2022-08-08T06:20:20.775Z,1.30
2022-08-08T06:22:49.259Z,1.42
2022-08-08T06:25:16.138Z,1.50
2022-08-08T06:27:56.305Z,1.45
2022-08-08T06:30:28.258Z,1.30
2022-08-08T06:33:01.146Z,1.13
2022-08-08T06:36:08.417Z,1.40
2022-08-08T06:38:27.554Z,1.50
2022-08-08T06:41:08.436Z,1.20
2022-08-08T06:43:56.959Z,1.20
2022-08-08T06:46:24.349Z,1.05
2022-08-08T06:48:51.199Z,1.30
2022-08-08T06:51:20.709Z,1.00
2022-08-08T06:53:50.987Z,1.48
2022-08-08T06:56:24.449Z,1.13
2022-08-08T06:58:53.110Z,1.00
2022-08-08T07:02:18.235Z,1.30
2022-08-08T07:04:38.844Z,0.80
2022-08-08T07:07:11.461Z,1.05
2022-08-08T07:09:59.416Z,0.80
2022-08-08T07:12:39.931Z,1.25
2022-08-08T07:15:23.466Z,1.20
2022-08-08T07:18:36.697Z,1.38
2022-08-08T07:23:23.343Z,1.10
2022-08-08T07:25:54.611Z,1.27
2022-08-08T07:28:31.559Z,1.67
2022-08-08T07:30:59.332Z,1.23
2022-08-08T07:33:26.607Z,1.35
2022-08-08T07:35:55.288Z,1.50
2022-08-08T07:38:25.596Z,1.30
2022-08-08T07:40:59.048Z,1.10
2022-08-08T07:43:36.990Z,1.10
2022-08-08T07:46:23.682Z,1.00
2022-08-08T07:48:51.864Z,1.13
2022-08-08T07:51:24.418Z,0.80
2022-08-08T07:54:26.732Z,0.95
2022-08-08T07:56:55.467Z,1.17
2022-08-08T07:59:25.446Z,1.10
2022-08-08T08:02:34.952Z,3.08
2022-08-08T08:04:49.152Z,1.63
2022-08-08T08:07:26.087Z,1.00
2022-08-08T08:10:03.269Z,0.95
2022-08-08T08:12:41.415Z,1.73
2022-08-08T08:15:15.126Z,1.00
2022-08-08T08:17:48.377Z,1.00
2022-08-08T08:20:18.514Z,1.15
2022-08-08T08:22:47.413Z,1.05
2022-08-08T08:25:16.919Z,0.85
2022-08-08T08:28:02.912Z,1.00
2022-08-08T08:30:29.819Z,0.98
2022-08-08T08:32:56.602Z,0.95
2022-08-08T08:35:29.805Z,0.90
2022-08-08T08:38:17.676Z,0.90
2022-08-08T08:43:18.684Z,1.10
2022-08-08T08:45:48.559Z,1.20
2022-08-08T08:48:19.234Z,1.63
2022-08-08T08:50:52.285Z,0.90
2022-08-08T08:53:55.195Z,0.90
2022-08-08T08:56:07.880Z,1.20
2022-08-08T08:58:42.296Z,1.00
2022-08-08T09:01:15.313Z,1.00
2022-08-08T09:03:47.906Z,0.88
2022-08-08T09:06:34.149Z,1.00
2022-08-08T09:09:26.661Z,0.80
2022-08-08T09:12:07.631Z,1.00
2022-08-08T09:14:35.616Z,0.80
2022-08-08T09:17:17.391Z,0.80
2022-08-08T09:21:58.841Z,1.00
2022-08-08T09:22:35.790Z,1.05
2022-08-08T09:25:04.549Z,1.02
2022-08-08T09:27:56.389Z,0.90
2022-08-08T09:30:20.187Z,1.08
2022-08-08T09:33:54.527Z,0.93
2022-08-08T09:35:49.573Z,0.88
2022-08-08T09:38:53.132Z,0.85
2022-08-08T09:41:54.674Z,1.27
2022-08-08T09:44:34.417Z,0.90
2022-08-08T09:48:02.617Z,1.55
2022-08-08T09:49:56.487Z,1.00
2022-08-08T09:52:55.451Z,1.10
2022-08-08T09:55:31.157Z,1.33
2022-08-08T09:58:08.512Z,0.85
2022-08-08T10:00:50.036Z,1.20
2022-08-08T10:03:28.295Z,0.90
2022-08-08T10:05:58.745Z,1.15
2022-08-08T10:08:30.727Z,1.20
2022-08-08T10:11:01.161Z,1.10
2022-08-08T10:13:35.424Z,1.20
2022-08-08T10:16:03.768Z,1.65
2022-08-08T10:18:35.367Z,1.40
2022-08-08T10:21:22.598Z,1.38
2022-08-08T10:23:58.014Z,1.40
2022-08-08T10:26:56.640Z,1.00
2022-08-08T10:29:44.015Z,1.20
2022-08-08T10:32:39.200Z,1.15
2022-08-08T10:36:01.922Z,0.98
2022-08-08T10:38:05.821Z,1.35
2022-08-08T10:40:39.067Z,1.25
2022-08-08T10:43:07.025Z,0.90
2022-08-08T10:45:56.572Z,1.10
2022-08-08T10:48:56.009Z,1.00
2022-08-08T10:51:26.634Z,1.10
2022-08-08T10:54:00.195Z,1.02
2022-08-08T10:56:36.325Z,1.23
2022-08-08T10:59:12.175Z,1.45
2022-08-08T11:01:46.681Z,1.30
2022-08-08T11:04:29.626Z,1.20
2022-08-08T11:07:01.004Z,1.20
2022-08-08T11:09:32.312Z,1.25
2022-08-08T11:12:06.092Z,1.25
2022-08-08T11:15:12.820Z,1.08
2022-08-08T11:17:58.165Z,1.52
2022-08-08T11:20:28.871Z,1.38
2022-08-08T11:23:00.979Z,1.02
2022-08-08T11:25:52.962Z,1.70
2022-08-08T11:28:29.432Z,1.27
2022-08-08T11:30:59.886Z,1.58
2022-08-08T11:33:51.681Z,1.52
2022-08-08T11:36:15.238Z,1.60
2022-08-08T11:38:53.915Z,1.40
2022-08-08T11:41:24.429Z,1.33
2022-08-08T11:43:53.890Z,1.40
2022-08-08T11:46:26.119Z,1.48
2022-08-08T11:48:55.772Z,1.63
2022-08-08T11:51:29.526Z,1.58
2022-08-08T11:54:04.561Z,1.80
2022-08-08T11:56:42.104Z,1.60
2022-08-08T11:59:11.846Z,1.85
2022-08-08T12:01:38.811Z,1.58
2022-08-08T12:04:08.297Z,1.60
2022-08-08T12:06:35.092Z,1.75
2022-08-08T12:09:09.743Z,1.98
2022-08-08T12:11:44.289Z,1.60
2022-08-08T12:14:22.231Z,2.03
2022-08-08T12:16:53.243Z,1.40
2022-08-08T12:19:38.009Z,1.42
2022-08-08T12:22:12.990Z,1.30
2022-08-08T12:24:54.260Z,1.20
2022-08-08T12:27:26.535Z,1.85
2022-08-08T12:29:59.113Z,1.40
2022-08-08T12:32:26.474Z,1.85
2022-08-08T12:35:04.174Z,1.70
2022-08-08T12:37:41.462Z,1.70
2022-08-08T12:40:23.084Z,1.80
2022-08-08T12:42:52.343Z,1.98
2022-08-08T12:45:58.995Z,1.25
2022-08-08T12:48:35.735Z,1.80
2022-08-08T12:51:04.855Z,1.60
2022-08-08T12:53:37.982Z,1.98
2022-08-08T12:56:19.258Z,1.90
2022-08-08T12:58:52.230Z,1.83
2022-08-08T13:01:24.799Z,1.50
2022-08-08T13:04:18.857Z,1.25
2022-08-08T13:07:07.687Z,1.58
2022-08-08T13:10:05.030Z,1.77
2022-08-08T13:12:36.179Z,1.63
2022-08-08T13:15:09.748Z,1.90
2022-08-08T13:18:09.989Z,1.67
2022-08-08T13:20:27.481Z,1.92
2022-08-08T13:23:30.255Z,1.58
2022-08-08T13:25:44.095Z,1.42
2022-08-08T13:28:17.621Z,1.35
2022-08-08T13:30:45.361Z,1.45
2022-08-08T13:33:18.574Z,1.75
2022-08-08T13:35:50.129Z,1.60
2022-08-08T13:38:18.280Z,1.80
2022-08-08T13:40:46.021Z,1.42
2022-08-08T13:43:15.885Z,1.58
2022-08-08T13:45:43.483Z,1.80
2022-08-08T13:48:25.130Z,2.00
2022-08-08T13:50:57.580Z,1.60
2022-08-08T13:53:41.258Z,1.52
2022-08-08T13:56:41.642Z,1.88
2022-08-08T13:59:32.768Z,1.30
2022-08-08T14:02:07.260Z,1.50
2022-08-08T14:04:37.510Z,1.45
2022-08-08T14:07:22.946Z,1.20
2022-08-08T14:10:05.496Z,1.00
2022-08-08T14:12:39.619Z,1.10
2022-08-08T14:15:22.484Z,1.38
2022-08-08T14:18:34.983Z,1.42
2022-08-08T14:21:02.340Z,1.40
2022-08-08T14:24:07.709Z,1.13
2022-08-08T14:26:28.602Z,1.10
2022-08-08T14:28:57.993Z,0.85
2022-08-08T14:32:05.818Z,1.10
2022-08-08T14:34:19.360Z,1.50
2022-08-08T14:36:53.521Z,1.42
2022-08-08T14:39:25.056Z,1.02
2022-08-08T14:42:09.560Z,1.10
2022-08-08T14:44:39.447Z,1.10
2022-08-08T14:47:16.906Z,1.58
2022-08-08T14:50:05.935Z,1.30
2022-08-08T14:52:53.345Z,1.45
2022-08-08T14:55:22.610Z,1.10
2022-08-08T14:58:11.230Z,1.67
2022-08-08T15:00:39.682Z,1.23
2022-08-08T15:03:14.269Z,1.48
2022-08-08T15:05:43.067Z,1.60
2022-08-08T15:08:22.466Z,1.38
2022-08-08T15:11:04.793Z,1.00
2022-08-08T15:13:40.327Z,1.60
2022-08-08T15:16:20.387Z,1.30
2022-08-08T15:18:51.502Z,1.48
2022-08-08T15:21:19.539Z,1.45
2022-08-08T15:23:51.387Z,1.38
2022-08-08T15:26:25.548Z,1.30
2022-08-08T15:28:54.061Z,1.58
2022-08-08T15:31:48.998Z,1.40
2022-08-08T15:34:18.651Z,1.33
2022-08-08T15:36:57.431Z,1.40
2022-08-08T15:39:25.742Z,1.30
2022-08-08T15:41:52.815Z,1.80
2022-08-08T15:44:21.052Z,1.52
2022-08-08T15:46:50.756Z,1.30
2022-08-08T15:49:20.630Z,1.75
2022-08-08T15:51:49.870Z,1.23
2022-08-08T15:54:18.782Z,1.45
2022-08-08T15:57:04.234Z,2.03
2022-08-08T16:00:05.177Z,2.10
2022-08-08T16:02:21.808Z,1.73
2022-08-08T16:04:58.766Z,1.60
2022-08-08T16:07:39.253Z,2.33
2022-08-08T16:13:04.199Z,2.33
2022-08-08T16:13:35.015Z,2.10
2022-08-08T16:15:57.524Z,2.78
2022-08-08T16:18:26.667Z,1.98
2022-08-08T16:20:53.459Z,1.92
2022-08-08T16:23:26.974Z,1.60
2022-08-08T16:25:54.533Z,2.42
2022-08-08T16:28:35.938Z,2.35
2022-08-08T16:31:07.726Z,1.63
2022-08-08T16:33:37.962Z,2.05
2022-08-08T16:36:08.756Z,1.90
2022-08-08T16:38:38.570Z,2.03
2022-08-08T16:41:20.664Z,2.25
2022-08-08T16:43:51.622Z,2.05
2022-08-08T16:46:37.173Z,2.25
2022-08-08T16:49:07.947Z,2.67
2022-08-08T16:55:04.275Z,2.78
2022-08-08T16:55:06.258Z,2.50
2022-08-08T16:57:23.222Z,2.03
2022-08-08T17:00:06.356Z,2.55
2022-08-08T17:02:39.435Z,2.00
2022-08-08T17:05:10.105Z,2.10
2022-08-08T17:07:40.381Z,1.80
2022-08-08T17:10:09.824Z,1.88
2022-08-08T17:12:37.319Z,1.40
2022-08-08T17:15:17.622Z,1.85
2022-08-08T17:18:02.751Z,2.30
2022-08-08T17:20:31.345Z,1.67
2022-08-08T17:23:16.832Z,1.75
2022-08-08T17:25:52.288Z,1.85
2022-08-08T17:28:34.227Z,1.67
2022-08-08T17:31:39.575Z,2.17
2022-08-08T17:34:48.249Z,1.40
2022-08-08T17:36:36.978Z,1.50
2022-08-08T17:39:45.828Z,1.30
2022-08-08T17:41:58.618Z,1.70
2022-08-08T17:44:29.697Z,1.67
2022-08-08T17:46:58.120Z,1.70
2022-08-08T17:49:37.974Z,1.70
2022-08-08T17:52:05.475Z,2.00
2022-08-08T17:54:33.838Z,1.58
2022-08-08T17:57:01.361Z,1.83
2022-08-08T17:59:30.462Z,2.00
2022-08-08T18:02:04.045Z,1.70
2022-08-08T18:04:34.079Z,1.55
2022-08-08T18:08:02.649Z,2.10
2022-08-08T18:09:55.834Z,2.17
2022-08-08T18:12:22.592Z,1.80
2022-08-08T18:14:51.994Z,1.67
2022-08-08T18:17:28.326Z,1.58
2022-08-08T18:20:36.607Z,2.30
2022-08-08T18:22:50.776Z,1.95
2022-08-08T18:25:18.160Z,1.73
2022-08-08T18:27:46.540Z,1.70
2022-08-08T18:30:13.840Z,1.50
2022-08-08T18:32:43.283Z,1.88
2022-08-08T18:35:15.790Z,1.45
2022-08-08T18:37:48.599Z,2.00
2022-08-08T18:40:35.072Z,1.80
2022-08-08T18:43:22.676Z,1.85
2022-08-08T18:46:52.839Z,1.75
2022-08-08T18:48:36.459Z,1.40
2022-08-08T18:51:03.184Z,1.40
2022-08-08T18:54:00.281Z,1.85
2022-08-08T18:56:24.433Z,2.05
2022-08-08T18:58:53.936Z,1.55
2022-08-08T19:02:26.091Z,1.40
2022-08-08T19:04:12.412Z,1.73
2022-08-08T19:06:39.697Z,1.58
2022-08-08T19:09:13.265Z,1.52
2022-08-08T19:11:40.490Z,1.60
2022-08-08T19:19:14.370Z,1.52
2022-08-08T19:21:48.612Z,1.55
2022-08-08T19:24:33.954Z,1.60
2022-08-08T19:27:05.059Z,1.58
2022-08-08T19:29:35.634Z,1.88
2022-08-08T19:32:09.193Z,1.40
2022-08-08T19:34:41.637Z,1.58
2022-08-08T19:37:16.527Z,1.35
2022-08-08T19:39:45.548Z,1.52
2022-08-08T19:42:13.685Z,1.70
2022-08-08T19:44:45.965Z,1.60
2022-08-08T19:47:14.086Z,1.48
2022-08-08T19:49:43.157Z,1.45
2022-08-08T19:55:51.743Z,1.90
2022-08-08T19:58:18.429Z,1.55
2022-08-08T20:00:45.610Z,2.17
2022-08-08T20:03:14.806Z,1.88
2022-08-08T20:06:15.560Z,1.80
2022-08-08T20:08:47.753Z,1.52
2022-08-08T20:11:15.528Z,1.45
2022-08-08T20:14:32.426Z,1.77
2022-08-08T20:16:29.899Z,1.67
2022-08-08T20:18:56.824Z,1.70
2022-08-08T20:21:25.597Z,1.30
2022-08-08T20:23:58.006Z,1.42
2022-08-08T20:26:27.668Z,2.17
2022-08-08T20:28:57.632Z,2.35
2022-08-08T20:31:24.401Z,1.73
2022-08-08T20:34:30.678Z,1.75
2022-08-08T20:36:58.747Z,1.65
2022-08-08T20:39:33.680Z,2.10
2022-08-08T20:42:06.335Z,1.77
2022-08-08T20:44:35.890Z,1.30
2022-08-08T20:47:15.776Z,1.80
2022-08-08T20:49:50.955Z,2.05
2022-08-08T20:52:21.875Z,2.22
2022-08-08T20:54:50.178Z,1.73
2022-08-08T20:57:19.021Z,1.75
2022-08-08T20:59:48.032Z,1.95
2022-08-08T21:02:25.447Z,1.90
2022-08-08T21:04:57.469Z,1.40
2022-08-08T21:07:47.923Z,1.50
2022-08-08T21:10:17.368Z,1.55
2022-08-08T21:12:46.293Z,1.63
2022-08-08T21:15:16.582Z,1.58
2022-08-08T21:18:02.361Z,1.55
2022-08-08T21:20:34.111Z,2.00
2022-08-08T21:23:02.328Z,1.48
2022-08-08T21:25:36.160Z,1.30
2022-08-08T21:28:14.730Z,1.20
2022-08-08T21:30:45.241Z,1.40
2022-08-08T21:33:20.669Z,1.40
2022-08-08T21:36:18.455Z,1.55
2022-08-08T21:38:34.715Z,1.67
2022-08-08T21:41:01.529Z,1.30
2022-08-08T21:43:32.994Z,1.00
2022-08-08T21:48:07.088Z,1.77
2022-08-08T21:48:51.166Z,1.70
2022-08-08T21:52:38.935Z,1.33
2022-08-08T21:54:22.984Z,1.92
2022-08-08T21:56:55.586Z,1.70
2022-08-08T21:59:25.062Z,2.00
2022-08-08T22:01:55.568Z,2.60
2022-08-08T22:04:24.825Z,2.50
2022-08-08T22:06:53.205Z,2.50
2022-08-08T22:09:20.643Z,2.58
2022-08-08T22:12:08.816Z,2.42
2022-08-08T22:14:36.854Z,3.35
2022-08-08T22:17:04.294Z,3.15
2022-08-08T22:20:10.629Z,2.65
2022-08-08T22:22:18.729Z,3.03
2022-08-08T22:24:45.441Z,2.80
2022-08-08T22:27:12.642Z,2.63
2022-08-08T22:29:57.764Z,3.10
2022-08-08T22:32:28.713Z,2.78
2022-08-08T22:34:55.595Z,2.75
2022-08-08T22:37:49.078Z,2.75
2022-08-08T22:40:11.871Z,2.17
2022-08-08T22:42:47.375Z,1.92
2022-08-08T22:45:15.724Z,1.70
2022-08-08T22:47:46.830Z,1.50
2022-08-08T22:50:26.096Z,1.42
2022-08-08T22:54:28.495Z,1.40
2022-08-08T22:55:58.220Z,1.30
2022-08-08T22:58:28.618Z,1.50
2022-08-08T23:00:59.841Z,1.13
2022-08-08T23:03:34.377Z,1.08
2022-08-08T23:06:17.595Z,1.00
2022-08-08T23:08:54.383Z,1.05
2022-08-08T23:11:23.559Z,1.30
2022-08-08T23:14:11.539Z,1.00
2022-08-08T23:16:44.211Z,1.00
2022-08-08T23:19:15.314Z,0.85
2022-08-08T23:21:42.617Z,1.17
2022-08-08T23:24:12.512Z,1.00
2022-08-08T23:26:53.503Z,1.10
2022-08-08T23:29:22.841Z,0.88
2022-08-08T23:31:49.560Z,1.05
2022-08-08T23:34:19.689Z,1.10
2022-08-08T23:36:47.852Z,1.00
2022-08-08T23:39:15.625Z,0.98
2022-08-08T23:41:46.868Z,1.02
2022-08-08T23:44:18.577Z,0.80
2022-08-08T23:49:01.802Z,0.90
2022-08-08T23:49:36.720Z,1.00
2022-08-08T23:52:08.163Z,1.02
2022-08-08T23:54:42.318Z,0.70
2022-08-08T23:57:27.777Z,0.90
